sensor_id;sensor_type;location;lat;lon;timestamp;P1;durP1;ratioP1;P2;durP2;ratioP2
59653;SDS011;66556;52.008;5.432;2023-05-29T00:02:32;19.41;;;4.3;;
59653;SDS011;66556;52.008;5.432;2023-05-29T00:04:08;17.2;;;4.2;;
59653;SDS011;66556;52.008;5.432;2023-05-29T00:05:44;21.6;;;4.3;;
59653;SDS011;66556;52.008;5.432;2023-05-29T00:07:20;17.3;;;4.2;;
59653;SDS011;66556;52.008;5.432;2023-05-29T00:10:33;19.3;;;4.41;;
59653;SDS011;66556;52.008;5.432;2023-05-29T00:12:09;25.5;;;4.5;;
59653;SDS011;66556;52.008;5.432;2023-05-29T00:13:45;21.5;;;4.7;;
59653;SDS011;66556;52.008;5.432;2023-05-29T00:16:57;17.3;;;4.0;;
59653;SDS011;66556;52.008;5.432;2023-05-29T00:18:33;23.4;;;4.7;;
59653;SDS011;66556;52.008;5.432;2023-05-29T00:20:10;20.2;;;4.1;;
59653;SDS011;66556;52.008;5.432;2023-05-29T00:23:23;18.8;;;4.2;;
59653;SDS011;66556;52.008;5.432;2023-05-29T00:24:59;19.3;;;4.0;;
59653;SDS011;66556;52.008;5.432;2023-05-29T00:26:35;22.8;;;4.8;;
59653;SDS011;66556;52.008;5.432;2023-05-29T00:29:47;21.5;;;3.8;;
59653;SDS011;66556;52.008;5.432;2023-05-29T00:31:23;21.4;;;3.9;;
59653;SDS011;66556;52.008;5.432;2023-05-29T00:32:59;19.7;;;4.1;;
59653;SDS011;66556;52.008;5.432;2023-05-29T00:34:36;23.1;;;4.41;;
59653;SDS011;66556;52.008;5.432;2023-05-29T00:37:48;19.5;;;4.2;;
59653;SDS011;66556;52.008;5.432;2023-05-29T00:39:24;20.7;;;4.41;;
59653;SDS011;66556;52.008;5.432;2023-05-29T00:41:00;19.7;;;4.0;;
59653;SDS011;66556;52.008;5.432;2023-05-29T00:44:12;24.7;;;4.3;;
59653;SDS011;66556;52.008;5.432;2023-05-29T00:45:49;18.7;;;4.3;;
59653;SDS011;66556;52.008;5.432;2023-05-29T00:47:26;16.0;;;3.7;;
59653;SDS011;66556;52.008;5.432;2023-05-29T00:50:41;23.5;;;4.5;;
59653;SDS011;66556;52.008;5.432;2023-05-29T00:52:19;23.3;;;4.1;;
59653;SDS011;66556;52.008;5.432;2023-05-29T00:53:55;20.7;;;4.1;;
59653;SDS011;66556;52.008;5.432;2023-05-29T00:55:34;20.9;;;4.2;;
59653;SDS011;66556;52.008;5.432;2023-05-29T00:58:49;23.2;;;4.0;;
59653;SDS011;66556;52.008;5.432;2023-05-29T01:00:27;19.5;;;3.8;;
59653;SDS011;66556;52.008;5.432;2023-05-29T01:05:17;21.6;;;4.1;;
59653;SDS011;66556;52.008;5.432;2023-05-29T01:06:53;16.11;;;3.9;;
59653;SDS011;66556;52.008;5.432;2023-05-29T01:08:29;19.2;;;3.9;;
59653;SDS011;66556;52.008;5.432;2023-05-29T01:10:06;17.2;;;3.5;;
59653;SDS011;66556;52.008;5.432;2023-05-29T01:13:31;23.2;;;3.9;;
59653;SDS011;66556;52.008;5.432;2023-05-29T01:15:14;20.2;;;4.1;;
59653;SDS011;66556;52.008;5.432;2023-05-29T01:18:45;18.8;;;3.8;;
59653;SDS011;66556;52.008;5.432;2023-05-29T01:22:19;18.91;;;3.8;;
59653;SDS011;66556;52.008;5.432;2023-05-29T01:24:18;17.91;;;3.6;;
59653;SDS011;66556;52.008;5.432;2023-05-29T01:26:11;18.5;;;3.6;;
59653;SDS011;66556;52.008;5.432;2023-05-29T01:27:57;22.2;;;4.2;;
59653;SDS011;66556;52.008;5.432;2023-05-29T01:29:38;19.3;;;4.0;;
59653;SDS011;66556;52.008;5.432;2023-05-29T01:31:21;18.7;;;3.5;;
59653;SDS011;66556;52.008;5.432;2023-05-29T01:34:38;22.1;;;4.0;;
59653;SDS011;66556;52.008;5.432;2023-05-29T01:36:14;16.2;;;3.3;;
59653;SDS011;66556;52.008;5.432;2023-05-29T01:37:50;25.5;;;4.0;;
59653;SDS011;66556;52.008;5.432;2023-05-29T01:39:26;19.91;;;3.6;;
59653;SDS011;66556;52.008;5.432;2023-05-29T01:42:40;20.6;;;3.7;;
59653;SDS011;66556;52.008;5.432;2023-05-29T01:44:17;18.61;;;3.6;;
59653;SDS011;66556;52.008;5.432;2023-05-29T01:45:55;17.11;;;3.9;;
59653;SDS011;66556;52.008;5.432;2023-05-29T01:49:07;21.7;;;3.8;;
59653;SDS011;66556;52.008;5.432;2023-05-29T01:50:44;15.8;;;3.5;;
59653;SDS011;66556;52.008;5.432;2023-05-29T01:52:21;19.91;;;3.6;;
59653;SDS011;66556;52.008;5.432;2023-05-29T01:55:34;19.0;;;4.0;;
59653;SDS011;66556;52.008;5.432;2023-05-29T01:57:10;20.2;;;3.2;;
59653;SDS011;66556;52.008;5.432;2023-05-29T01:58:48;20.8;;;3.8;;
59653;SDS011;66556;52.008;5.432;2023-05-29T02:00:26;23.6;;;4.41;;
59653;SDS011;66556;52.008;5.432;2023-05-29T02:03:42;20.0;;;3.7;;
59653;SDS011;66556;52.008;5.432;2023-05-29T02:05:18;18.2;;;3.5;;
59653;SDS011;66556;52.008;5.432;2023-05-29T02:06:54;20.0;;;3.4;;
59653;SDS011;66556;52.008;5.432;2023-05-29T02:10:07;16.61;;;3.7;;
59653;SDS011;66556;52.008;5.432;2023-05-29T02:11:44;17.91;;;3.7;;
59653;SDS011;66556;52.008;5.432;2023-05-29T02:13:20;20.11;;;3.8;;
59653;SDS011;66556;52.008;5.432;2023-05-29T02:14:56;16.5;;;3.9;;
59653;SDS011;66556;52.008;5.432;2023-05-29T02:18:09;17.2;;;3.7;;
59653;SDS011;66556;52.008;5.432;2023-05-29T02:19:48;19.7;;;4.0;;
59653;SDS011;66556;52.008;5.432;2023-05-29T02:21:24;19.11;;;3.3;;
59653;SDS011;66556;52.008;5.432;2023-05-29T02:24:37;19.11;;;3.3;;
59653;SDS011;66556;52.008;5.432;2023-05-29T02:26:13;21.0;;;3.9;;
59653;SDS011;66556;52.008;5.432;2023-05-29T02:27:49;16.2;;;3.4;;
59653;SDS011;66556;52.008;5.432;2023-05-29T02:31:02;18.61;;;3.6;;
59653;SDS011;66556;52.008;5.432;2023-05-29T02:32:38;19.0;;;3.9;;
59653;SDS011;66556;52.008;5.432;2023-05-29T02:34:15;20.7;;;4.0;;
59653;SDS011;66556;52.008;5.432;2023-05-29T02:35:51;21.2;;;3.8;;
59653;SDS011;66556;52.008;5.432;2023-05-29T02:39:03;18.61;;;3.7;;
59653;SDS011;66556;52.008;5.432;2023-05-29T02:40:39;23.3;;;4.5;;
59653;SDS011;66556;52.008;5.432;2023-05-29T02:42:15;24.7;;;4.0;;
59653;SDS011;66556;52.008;5.432;2023-05-29T02:45:27;16.4;;;3.1;;
59653;SDS011;66556;52.008;5.432;2023-05-29T02:47:04;16.7;;;3.6;;
59653;SDS011;66556;52.008;5.432;2023-05-29T02:48:41;23.1;;;4.2;;
59653;SDS011;66556;52.008;5.432;2023-05-29T02:51:53;18.2;;;3.5;;
59653;SDS011;66556;52.008;5.432;2023-05-29T02:53:29;20.11;;;3.5;;
59653;SDS011;66556;52.008;5.432;2023-05-29T02:55:07;21.7;;;4.0;;
59653;SDS011;66556;52.008;5.432;2023-05-29T02:58:20;18.11;;;3.6;;
59653;SDS011;66556;52.008;5.432;2023-05-29T02:59:56;19.11;;;3.5;;
59653;SDS011;66556;52.008;5.432;2023-05-29T03:01:32;18.0;;;3.5;;
59653;SDS011;66556;52.008;5.432;2023-05-29T03:03:09;16.8;;;3.5;;
59653;SDS011;66556;52.008;5.432;2023-05-29T03:06:21;18.41;;;3.5;;
59653;SDS011;66556;52.008;5.432;2023-05-29T03:07:57;21.2;;;3.6;;
59653;SDS011;66556;52.008;5.432;2023-05-29T03:09:33;18.0;;;4.0;;
59653;SDS011;66556;52.008;5.432;2023-05-29T03:12:46;22.6;;;3.3;;
59653;SDS011;66556;52.008;5.432;2023-05-29T03:14:22;21.2;;;3.6;;
59653;SDS011;66556;52.008;5.432;2023-05-29T03:15:58;18.2;;;3.5;;
59653;SDS011;66556;52.008;5.432;2023-05-29T03:19:10;13.3;;;3.3;;
59653;SDS011;66556;52.008;5.432;2023-05-29T03:20:47;18.2;;;3.1;;
59653;SDS011;66556;52.008;5.432;2023-05-29T03:22:23;15.5;;;3.3;;
59653;SDS011;66556;52.008;5.432;2023-05-29T03:23:59;17.41;;;3.9;;
59653;SDS011;66556;52.008;5.432;2023-05-29T03:27:11;17.0;;;3.4;;
59653;SDS011;66556;52.008;5.432;2023-05-29T03:28:47;21.1;;;3.7;;
59653;SDS011;66556;52.008;5.432;2023-05-29T03:30:23;19.2;;;3.4;;
59653;SDS011;66556;52.008;5.432;2023-05-29T03:33:35;15.7;;;3.2;;
59653;SDS011;66556;52.008;5.432;2023-05-29T03:35:12;16.7;;;3.4;;
59653;SDS011;66556;52.008;5.432;2023-05-29T03:36:48;19.3;;;3.4;;
59653;SDS011;66556;52.008;5.432;2023-05-29T03:39:59;17.3;;;3.1;;
59653;SDS011;66556;52.008;5.432;2023-05-29T03:41:35;17.41;;;3.3;;
59653;SDS011;66556;52.008;5.432;2023-05-29T03:43:11;21.4;;;3.9;;
59653;SDS011;66556;52.008;5.432;2023-05-29T03:46:24;14.4;;;3.1;;
59653;SDS011;66556;52.008;5.432;2023-05-29T03:48:00;16.0;;;3.2;;
59653;SDS011;66556;52.008;5.432;2023-05-29T03:49:36;17.0;;;3.0;;
59653;SDS011;66556;52.008;5.432;2023-05-29T03:51:12;20.11;;;3.3;;
59653;SDS011;66556;52.008;5.432;2023-05-29T03:54:25;17.7;;;3.6;;
59653;SDS011;66556;52.008;5.432;2023-05-29T03:56:01;19.11;;;3.0;;
59653;SDS011;66556;52.008;5.432;2023-05-29T03:57:37;16.61;;;3.4;;
59653;SDS011;66556;52.008;5.432;2023-05-29T04:00:49;19.7;;;3.9;;
59653;SDS011;66556;52.008;5.432;2023-05-29T04:02:25;21.1;;;3.6;;
59653;SDS011;66556;52.008;5.432;2023-05-29T04:04:02;21.6;;;3.3;;
59653;SDS011;66556;52.008;5.432;2023-05-29T04:07:14;19.2;;;3.4;;
59653;SDS011;66556;52.008;5.432;2023-05-29T04:08:50;17.11;;;3.7;;
59653;SDS011;66556;52.008;5.432;2023-05-29T04:10:26;19.41;;;3.7;;
59653;SDS011;66556;52.008;5.432;2023-05-29T04:13:39;16.3;;;3.3;;
59653;SDS011;66556;52.008;5.432;2023-05-29T04:15:15;16.3;;;3.4;;
59653;SDS011;66556;52.008;5.432;2023-05-29T04:16:51;17.8;;;3.4;;
59653;SDS011;66556;52.008;5.432;2023-05-29T04:18:28;21.5;;;3.9;;
59653;SDS011;66556;52.008;5.432;2023-05-29T04:21:41;16.5;;;3.2;;
59653;SDS011;66556;52.008;5.432;2023-05-29T04:23:17;21.5;;;3.7;;
59653;SDS011;66556;52.008;5.432;2023-05-29T04:24:53;19.0;;;3.4;;
59653;SDS011;66556;52.008;5.432;2023-05-29T04:28:05;19.2;;;3.2;;
59653;SDS011;66556;52.008;5.432;2023-05-29T04:29:42;16.5;;;3.6;;
59653;SDS011;66556;52.008;5.432;2023-05-29T04:31:18;18.5;;;3.4;;
59653;SDS011;66556;52.008;5.432;2023-05-29T04:34:30;21.3;;;3.7;;
59653;SDS011;66556;52.008;5.432;2023-05-29T04:36:06;16.61;;;3.8;;
59653;SDS011;66556;52.008;5.432;2023-05-29T04:37:42;17.41;;;3.2;;
59653;SDS011;66556;52.008;5.432;2023-05-29T04:39:18;18.3;;;3.4;;
59653;SDS011;66556;52.008;5.432;2023-05-29T04:42:32;16.5;;;3.4;;
59653;SDS011;66556;52.008;5.432;2023-05-29T04:44:08;19.11;;;4.0;;
59653;SDS011;66556;52.008;5.432;2023-05-29T04:45:44;19.5;;;3.3;;
59653;SDS011;66556;52.008;5.432;2023-05-29T04:48:56;18.41;;;3.6;;
59653;SDS011;66556;52.008;5.432;2023-05-29T04:50:32;15.2;;;3.1;;
59653;SDS011;66556;52.008;5.432;2023-05-29T04:52:07;15.6;;;4.1;;
59653;SDS011;66556;52.008;5.432;2023-05-29T04:55:20;15.6;;;4.1;;
59653;SDS011;66556;52.008;5.432;2023-05-29T04:56:56;17.2;;;3.4;;
59653;SDS011;66556;52.008;5.432;2023-05-29T04:58:32;20.8;;;3.7;;
59653;SDS011;66556;52.008;5.432;2023-05-29T05:01:45;16.5;;;3.6;;
59653;SDS011;66556;52.008;5.432;2023-05-29T05:03:21;14.8;;;3.4;;
59653;SDS011;66556;52.008;5.432;2023-05-29T05:04:57;17.2;;;3.5;;
59653;SDS011;66556;52.008;5.432;2023-05-29T05:06:34;22.1;;;4.1;;
59653;SDS011;66556;52.008;5.432;2023-05-29T05:09:46;16.4;;;3.4;;
59653;SDS011;66556;52.008;5.432;2023-05-29T05:11:22;17.41;;;3.3;;
59653;SDS011;66556;52.008;5.432;2023-05-29T05:12:59;16.5;;;2.9;;
59653;SDS011;66556;52.008;5.432;2023-05-29T05:16:11;20.6;;;3.9;;
59653;SDS011;66556;52.008;5.432;2023-05-29T05:17:48;17.0;;;3.3;;
59653;SDS011;66556;52.008;5.432;2023-05-29T05:19:24;18.41;;;3.9;;
59653;SDS011;66556;52.008;5.432;2023-05-29T05:22:36;17.0;;;3.4;;
59653;SDS011;66556;52.008;5.432;2023-05-29T05:24:12;22.3;;;3.6;;
59653;SDS011;66556;52.008;5.432;2023-05-29T05:25:48;18.0;;;3.1;;
59653;SDS011;66556;52.008;5.432;2023-05-29T05:27:24;14.6;;;3.3;;
59653;SDS011;66556;52.008;5.432;2023-05-29T05:30:37;19.8;;;3.8;;
59653;SDS011;66556;52.008;5.432;2023-05-29T05:32:13;16.7;;;3.5;;
59653;SDS011;66556;52.008;5.432;2023-05-29T05:33:49;23.3;;;3.7;;
59653;SDS011;66556;52.008;5.432;2023-05-29T05:37:01;36.6;;;4.8;;
59653;SDS011;66556;52.008;5.432;2023-05-29T05:38:37;17.7;;;3.0;;
59653;SDS011;66556;52.008;5.432;2023-05-29T05:40:13;17.61;;;3.1;;
59653;SDS011;66556;52.008;5.432;2023-05-29T05:43:26;15.5;;;3.0;;
59653;SDS011;66556;52.008;5.432;2023-05-29T05:45:02;12.8;;;2.8;;
59653;SDS011;66556;52.008;5.432;2023-05-29T05:46:39;20.8;;;3.4;;
59653;SDS011;66556;52.008;5.432;2023-05-29T05:49:51;21.2;;;3.5;;
59653;SDS011;66556;52.008;5.432;2023-05-29T05:51:27;22.0;;;3.7;;
59653;SDS011;66556;52.008;5.432;2023-05-29T05:53:03;17.11;;;3.0;;
59653;SDS011;66556;52.008;5.432;2023-05-29T05:54:40;16.5;;;3.1;;
59653;SDS011;66556;52.008;5.432;2023-05-29T05:57:52;14.7;;;2.9;;
59653;SDS011;66556;52.008;5.432;2023-05-29T05:59:28;14.7;;;2.9;;
59653;SDS011;66556;52.008;5.432;2023-05-29T06:01:04;17.11;;;2.9;;
59653;SDS011;66556;52.008;5.432;2023-05-29T06:04:16;19.41;;;3.0;;
59653;SDS011;66556;52.008;5.432;2023-05-29T06:05:53;18.41;;;3.4;;
59653;SDS011;66556;52.008;5.432;2023-05-29T06:07:29;17.7;;;3.4;;
59653;SDS011;66556;52.008;5.432;2023-05-29T06:10:41;14.0;;;3.0;;
59653;SDS011;66556;52.008;5.432;2023-05-29T06:12:17;15.1;;;3.3;;
59653;SDS011;66556;52.008;5.432;2023-05-29T06:13:53;19.0;;;3.5;;
59653;SDS011;66556;52.008;5.432;2023-05-29T06:15:29;17.91;;;3.4;;
59653;SDS011;66556;52.008;5.432;2023-05-29T06:20:18;22.8;;;3.4;;
59653;SDS011;66556;52.008;5.432;2023-05-29T06:21:54;13.7;;;2.9;;
59653;SDS011;66556;52.008;5.432;2023-05-29T06:25:06;16.7;;;2.9;;
59653;SDS011;66556;52.008;5.432;2023-05-29T06:26:42;14.3;;;3.0;;
59653;SDS011;66556;52.008;5.432;2023-05-29T06:28:19;16.8;;;3.1;;
59653;SDS011;66556;52.008;5.432;2023-05-29T06:31:31;14.8;;;2.7;;
59653;SDS011;66556;52.008;5.432;2023-05-29T06:33:07;13.9;;;2.9;;
59653;SDS011;66556;52.008;5.432;2023-05-29T06:34:43;12.0;;;2.4;;
59653;SDS011;66556;52.008;5.432;2023-05-29T06:37:55;13.6;;;2.5;;
59653;SDS011;66556;52.008;5.432;2023-05-29T06:39:32;15.5;;;3.2;;
59653;SDS011;66556;52.008;5.432;2023-05-29T06:41:08;15.8;;;2.7;;
59653;SDS011;66556;52.008;5.432;2023-05-29T06:42:44;13.7;;;2.7;;
59653;SDS011;66556;52.008;5.432;2023-05-29T06:45:56;13.3;;;2.8;;
59653;SDS011;66556;52.008;5.432;2023-05-29T06:47:32;13.5;;;3.0;;
59653;SDS011;66556;52.008;5.432;2023-05-29T06:49:08;12.9;;;2.7;;
59653;SDS011;66556;52.008;5.432;2023-05-29T06:52:21;14.6;;;2.9;;
59653;SDS011;66556;52.008;5.432;2023-05-29T06:53:57;14.1;;;2.9;;
59653;SDS011;66556;52.008;5.432;2023-05-29T06:55:33;17.7;;;2.9;;
59653;SDS011;66556;52.008;5.432;2023-05-29T06:58:45;12.1;;;2.8;;
59653;SDS011;66556;52.008;5.432;2023-05-29T07:00:21;12.4;;;2.6;;
59653;SDS011;66556;52.008;5.432;2023-05-29T07:01:57;13.9;;;2.9;;
59653;SDS011;66556;52.008;5.432;2023-05-29T07:05:10;16.8;;;2.7;;
59653;SDS011;66556;52.008;5.432;2023-05-29T07:06:46;14.2;;;3.1;;
59653;SDS011;66556;52.008;5.432;2023-05-29T07:08:22;13.7;;;2.8;;
59653;SDS011;66556;52.008;5.432;2023-05-29T07:09:59;11.5;;;2.7;;
59653;SDS011;66556;52.008;5.432;2023-05-29T07:13:14;14.6;;;2.5;;
59653;SDS011;66556;52.008;5.432;2023-05-29T07:14:51;12.6;;;2.6;;
59653;SDS011;66556;52.008;5.432;2023-05-29T07:16:28;14.1;;;2.7;;
59653;SDS011;66556;52.008;5.432;2023-05-29T07:19:40;14.4;;;2.7;;
59653;SDS011;66556;52.008;5.432;2023-05-29T07:21:16;10.9;;;2.7;;
59653;SDS011;66556;52.008;5.432;2023-05-29T07:22:53;12.0;;;2.4;;
59653;SDS011;66556;52.008;5.432;2023-05-29T07:26:05;10.8;;;2.8;;
59653;SDS011;66556;52.008;5.432;2023-05-29T07:27:41;14.5;;;2.8;;
59653;SDS011;66556;52.008;5.432;2023-05-29T07:29:18;11.1;;;2.5;;
59653;SDS011;66556;52.008;5.432;2023-05-29T07:30:54;11.3;;;2.7;;
59653;SDS011;66556;52.008;5.432;2023-05-29T07:34:06;13.0;;;2.4;;
59653;SDS011;66556;52.008;5.432;2023-05-29T07:35:42;11.9;;;2.31;;
59653;SDS011;66556;52.008;5.432;2023-05-29T07:37:18;14.1;;;2.8;;
59653;SDS011;66556;52.008;5.432;2023-05-29T07:40:31;10.1;;;2.31;;
59653;SDS011;66556;52.008;5.432;2023-05-29T07:42:07;15.2;;;2.21;;
59653;SDS011;66556;52.008;5.432;2023-05-29T07:43:43;12.0;;;2.9;;
59653;SDS011;66556;52.008;5.432;2023-05-29T07:46:55;16.8;;;2.8;;
59653;SDS011;66556;52.008;5.432;2023-05-29T07:48:31;13.0;;;2.8;;
59653;SDS011;66556;52.008;5.432;2023-05-29T07:50:08;14.7;;;2.8;;
59653;SDS011;66556;52.008;5.432;2023-05-29T07:51:44;12.7;;;2.6;;
59653;SDS011;66556;52.008;5.432;2023-05-29T07:54:57;16.8;;;2.8;;
59653;SDS011;66556;52.008;5.432;2023-05-29T07:56:33;11.0;;;2.5;;
59653;SDS011;66556;52.008;5.432;2023-05-29T07:58:09;12.0;;;2.7;;
59653;SDS011;66556;52.008;5.432;2023-05-29T08:01:21;8.6;;;2.21;;
59653;SDS011;66556;52.008;5.432;2023-05-29T08:02:57;14.4;;;3.0;;
59653;SDS011;66556;52.008;5.432;2023-05-29T08:04:34;9.81;;;2.5;;
59653;SDS011;66556;52.008;5.432;2023-05-29T08:07:46;9.81;;;2.5;;
59653;SDS011;66556;52.008;5.432;2023-05-29T08:09:22;13.0;;;3.1;;
59653;SDS011;66556;52.008;5.432;2023-05-29T08:10:58;14.3;;;2.7;;
59653;SDS011;66556;52.008;5.432;2023-05-29T08:14:10;14.2;;;2.7;;
59653;SDS011;66556;52.008;5.432;2023-05-29T08:15:47;12.5;;;2.7;;
59653;SDS011;66556;52.008;5.432;2023-05-29T08:17:23;11.0;;;2.1;;
59653;SDS011;66556;52.008;5.432;2023-05-29T08:18:59;12.2;;;2.7;;
59653;SDS011;66556;52.008;5.432;2023-05-29T08:22:12;12.1;;;2.7;;
59653;SDS011;66556;52.008;5.432;2023-05-29T08:23:49;14.2;;;2.31;;
59653;SDS011;66556;52.008;5.432;2023-05-29T08:25:25;11.8;;;2.6;;
59653;SDS011;66556;52.008;5.432;2023-05-29T08:28:38;12.1;;;2.7;;
59653;SDS011;66556;52.008;5.432;2023-05-29T08:30:14;10.3;;;2.4;;
59653;SDS011;66556;52.008;5.432;2023-05-29T08:31:51;11.8;;;2.6;;
59653;SDS011;66556;52.008;5.432;2023-05-29T08:35:04;13.2;;;2.7;;
59653;SDS011;66556;52.008;5.432;2023-05-29T08:36:39;11.1;;;2.8;;
59653;SDS011;66556;52.008;5.432;2023-05-29T08:38:15;9.6;;;2.1;;
59653;SDS011;66556;52.008;5.432;2023-05-29T08:39:50;12.0;;;2.4;;
59653;SDS011;66556;52.008;5.432;2023-05-29T08:43:15;10.6;;;2.5;;
59653;SDS011;66556;52.008;5.432;2023-05-29T08:44:55;11.1;;;2.5;;
59653;SDS011;66556;52.008;5.432;2023-05-29T08:46:32;11.9;;;2.7;;
59653;SDS011;66556;52.008;5.432;2023-05-29T08:49:49;12.8;;;2.6;;
59653;SDS011;66556;52.008;5.432;2023-05-29T08:51:31;8.5;;;2.31;;
59653;SDS011;66556;52.008;5.432;2023-05-29T08:53:12;10.8;;;2.8;;
59653;SDS011;66556;52.008;5.432;2023-05-29T08:54:48;10.1;;;2.5;;
59653;SDS011;66556;52.008;5.432;2023-05-29T08:58:00;11.8;;;2.4;;
59653;SDS011;66556;52.008;5.432;2023-05-29T08:59:39;12.7;;;2.4;;
59653;SDS011;66556;52.008;5.432;2023-05-29T09:01:17;12.6;;;2.6;;
59653;SDS011;66556;52.008;5.432;2023-05-29T09:02:55;11.0;;;2.6;;
59653;SDS011;66556;52.008;5.432;2023-05-29T09:06:06;7.1;;;2.1;;
59653;SDS011;66556;52.008;5.432;2023-05-29T09:07:42;11.2;;;2.4;;
59653;SDS011;66556;52.008;5.432;2023-05-29T09:09:18;9.6;;;2.5;;
59653;SDS011;66556;52.008;5.432;2023-05-29T09:12:32;16.2;;;2.5;;
59653;SDS011;66556;52.008;5.432;2023-05-29T09:14:10;13.0;;;2.31;;
59653;SDS011;66556;52.008;5.432;2023-05-29T09:16:07;15.0;;;2.6;;
59653;SDS011;66556;52.008;5.432;2023-05-29T09:17:43;11.5;;;2.1;;
59653;SDS011;66556;52.008;5.432;2023-05-29T09:20:55;13.1;;;2.7;;
59653;SDS011;66556;52.008;5.432;2023-05-29T09:22:32;21.5;;;2.9;;
59653;SDS011;66556;52.008;5.432;2023-05-29T09:24:08;13.1;;;2.31;;
59653;SDS011;66556;52.008;5.432;2023-05-29T09:27:27;10.4;;;2.5;;
59653;SDS011;66556;52.008;5.432;2023-05-29T09:29:03;11.3;;;2.31;;
59653;SDS011;66556;52.008;5.432;2023-05-29T09:30:40;11.5;;;2.7;;
59653;SDS011;66556;52.008;5.432;2023-05-29T09:32:17;15.5;;;2.4;;
59653;SDS011;66556;52.008;5.432;2023-05-29T09:35:33;11.5;;;2.5;;
59653;SDS011;66556;52.008;5.432;2023-05-29T09:37:11;10.8;;;2.5;;
59653;SDS011;66556;52.008;5.432;2023-05-29T09:38:48;9.6;;;2.5;;
59653;SDS011;66556;52.008;5.432;2023-05-29T09:42:01;10.7;;;2.31;;
59653;SDS011;66556;52.008;5.432;2023-05-29T09:43:38;17.5;;;2.9;;
59653;SDS011;66556;52.008;5.432;2023-05-29T09:45:16;10.9;;;2.31;;
59653;SDS011;66556;52.008;5.432;2023-05-29T09:46:56;10.7;;;2.6;;
59653;SDS011;66556;52.008;5.432;2023-05-29T09:50:17;11.7;;;2.6;;
59653;SDS011;66556;52.008;5.432;2023-05-29T09:51:54;15.2;;;2.7;;
59653;SDS011;66556;52.008;5.432;2023-05-29T09:53:31;8.6;;;2.31;;
59653;SDS011;66556;52.008;5.432;2023-05-29T09:56:44;12.0;;;2.6;;
59653;SDS011;66556;52.008;5.432;2023-05-29T09:58:21;13.4;;;2.5;;
59653;SDS011;66556;52.008;5.432;2023-05-29T09:59:58;15.4;;;2.6;;
59653;SDS011;66556;52.008;5.432;2023-05-29T10:01:36;8.4;;;2.4;;
59653;SDS011;66556;52.008;5.432;2023-05-29T10:04:51;11.2;;;2.31;;
59653;SDS011;66556;52.008;5.432;2023-05-29T10:06:27;15.0;;;2.7;;
59653;SDS011;66556;52.008;5.432;2023-05-29T10:08:05;10.8;;;2.5;;
59653;SDS011;66556;52.008;5.432;2023-05-29T10:11:23;10.9;;;2.7;;
59653;SDS011;66556;52.008;5.432;2023-05-29T10:13:00;14.5;;;2.8;;
59653;SDS011;66556;52.008;5.432;2023-05-29T10:14:38;16.0;;;2.9;;
59653;SDS011;66556;52.008;5.432;2023-05-29T10:16:18;15.0;;;2.9;;
59653;SDS011;66556;52.008;5.432;2023-05-29T10:19:39;11.2;;;2.5;;
59653;SDS011;66556;52.008;5.432;2023-05-29T10:21:17;10.0;;;2.4;;
59653;SDS011;66556;52.008;5.432;2023-05-29T10:22:55;10.5;;;2.5;;
59653;SDS011;66556;52.008;5.432;2023-05-29T10:24:35;14.3;;;2.7;;
59653;SDS011;66556;52.008;5.432;2023-05-29T10:27:59;9.31;;;2.4;;
59653;SDS011;66556;52.008;5.432;2023-05-29T10:29:37;33.71;;;3.7;;
59653;SDS011;66556;52.008;5.432;2023-05-29T10:31:19;10.5;;;2.4;;
59653;SDS011;66556;52.008;5.432;2023-05-29T10:33:08;8.81;;;2.1;;
59653;SDS011;66556;52.008;5.432;2023-05-29T10:35:06;12.3;;;2.6;;
59653;SDS011;66556;52.008;5.432;2023-05-29T10:38:37;9.31;;;2.9;;
59653;SDS011;66556;52.008;5.432;2023-05-29T10:40:16;9.71;;;3.1;;
59653;SDS011;66556;52.008;5.432;2023-05-29T10:41:59;11.5;;;2.8;;
59653;SDS011;66556;52.008;5.432;2023-05-29T10:43:35;12.3;;;2.6;;
59653;SDS011;66556;52.008;5.432;2023-05-29T10:47:24;10.7;;;2.6;;
59653;SDS011;66556;52.008;5.432;2023-05-29T10:49:00;10.6;;;2.6;;
59653;SDS011;66556;52.008;5.432;2023-05-29T10:50:36;12.3;;;3.0;;
59653;SDS011;66556;52.008;5.432;2023-05-29T10:52:12;9.71;;;2.8;;
59653;SDS011;66556;52.008;5.432;2023-05-29T10:53:48;10.6;;;2.8;;
59653;SDS011;66556;52.008;5.432;2023-05-29T10:57:10;12.2;;;2.8;;
59653;SDS011;66556;52.008;5.432;2023-05-29T10:58:49;11.9;;;2.7;;
59653;SDS011;66556;52.008;5.432;2023-05-29T11:00:28;11.4;;;2.7;;
59653;SDS011;66556;52.008;5.432;2023-05-29T11:03:40;11.2;;;2.8;;
59653;SDS011;66556;52.008;5.432;2023-05-29T11:05:18;12.6;;;2.9;;
59653;SDS011;66556;52.008;5.432;2023-05-29T11:06:55;11.6;;;2.8;;
59653;SDS011;66556;52.008;5.432;2023-05-29T11:08:33;12.0;;;2.8;;
59653;SDS011;66556;52.008;5.432;2023-05-29T11:11:48;11.8;;;2.9;;
59653;SDS011;66556;52.008;5.432;2023-05-29T11:13:51;10.7;;;2.7;;
59653;SDS011;66556;52.008;5.432;2023-05-29T11:15:28;12.3;;;2.9;;
59653;SDS011;66556;52.008;5.432;2023-05-29T11:17:04;11.5;;;2.7;;
59653;SDS011;66556;52.008;5.432;2023-05-29T11:20:24;10.3;;;2.5;;
59653;SDS011;66556;52.008;5.432;2023-05-29T11:22:31;10.21;;;2.9;;
59653;SDS011;66556;52.008;5.432;2023-05-29T11:24:27;14.0;;;3.0;;
59653;SDS011;66556;52.008;5.432;2023-05-29T11:26:04;12.2;;;2.8;;
59653;SDS011;66556;52.008;5.432;2023-05-29T11:27:40;16.11;;;3.2;;
59653;SDS011;66556;52.008;5.432;2023-05-29T11:29:21;11.9;;;3.0;;
59653;SDS011;66556;52.008;5.432;2023-05-29T11:32:37;9.81;;;2.6;;
59653;SDS011;66556;52.008;5.432;2023-05-29T11:34:17;11.4;;;2.7;;
59653;SDS011;66556;52.008;5.432;2023-05-29T11:35:55;10.7;;;3.1;;
59653;SDS011;66556;52.008;5.432;2023-05-29T11:39:10;14.0;;;3.1;;
59653;SDS011;66556;52.008;5.432;2023-05-29T11:40:46;11.7;;;3.2;;
59653;SDS011;66556;52.008;5.432;2023-05-29T11:42:22;11.9;;;3.1;;
59653;SDS011;66556;52.008;5.432;2023-05-29T11:43:59;10.0;;;2.8;;
59653;SDS011;66556;52.008;5.432;2023-05-29T11:47:12;12.4;;;2.6;;
59653;SDS011;66556;52.008;5.432;2023-05-29T11:48:48;10.9;;;2.9;;
59653;SDS011;66556;52.008;5.432;2023-05-29T11:50:25;11.1;;;2.5;;
59653;SDS011;66556;52.008;5.432;2023-05-29T11:53:46;12.1;;;3.3;;
59653;SDS011;66556;52.008;5.432;2023-05-29T11:55:23;12.0;;;2.9;;
59653;SDS011;66556;52.008;5.432;2023-05-29T11:57:01;13.5;;;3.1;;
59653;SDS011;66556;52.008;5.432;2023-05-29T11:58:38;12.8;;;2.8;;
59653;SDS011;66556;52.008;5.432;2023-05-29T12:01:53;9.21;;;2.5;;
59653;SDS011;66556;52.008;5.432;2023-05-29T12:03:29;11.7;;;2.8;;
59653;SDS011;66556;52.008;5.432;2023-05-29T12:05:06;11.9;;;2.9;;
59653;SDS011;66556;52.008;5.432;2023-05-29T12:08:20;12.3;;;2.9;;
59653;SDS011;66556;52.008;5.432;2023-05-29T12:09:57;12.4;;;3.1;;
59653;SDS011;66556;52.008;5.432;2023-05-29T12:11:44;12.4;;;3.1;;
59653;SDS011;66556;52.008;5.432;2023-05-29T12:13:21;12.8;;;3.0;;
59653;SDS011;66556;52.008;5.432;2023-05-29T12:16:34;15.4;;;3.1;;
59653;SDS011;66556;52.008;5.432;2023-05-29T12:18:11;8.81;;;2.8;;
59653;SDS011;66556;52.008;5.432;2023-05-29T12:19:47;11.4;;;3.2;;
59653;SDS011;66556;52.008;5.432;2023-05-29T12:23:00;16.3;;;3.2;;
59653;SDS011;66556;52.008;5.432;2023-05-29T12:24:37;12.5;;;3.1;;
59653;SDS011;66556;52.008;5.432;2023-05-29T12:26:13;15.9;;;4.2;;
59653;SDS011;66556;52.008;5.432;2023-05-29T12:29:29;15.3;;;5.5;;
59653;SDS011;66556;52.008;5.432;2023-05-29T12:31:06;15.8;;;5.11;;
59653;SDS011;66556;52.008;5.432;2023-05-29T12:32:42;33.4;;;15.4;;
59653;SDS011;66556;52.008;5.432;2023-05-29T12:34:20;21.5;;;9.1;;
59653;SDS011;66556;52.008;5.432;2023-05-29T12:37:42;12.9;;;5.9;;
59653;SDS011;66556;52.008;5.432;2023-05-29T12:39:19;15.9;;;3.7;;
59653;SDS011;66556;52.008;5.432;2023-05-29T12:40:55;15.5;;;3.5;;
59653;SDS011;66556;52.008;5.432;2023-05-29T12:42:32;11.3;;;3.1;;
59653;SDS011;66556;52.008;5.432;2023-05-29T12:45:44;15.0;;;3.0;;
59653;SDS011;66556;52.008;5.432;2023-05-29T12:47:23;12.5;;;2.6;;
59653;SDS011;66556;52.008;5.432;2023-05-29T12:49:10;13.7;;;3.0;;
59653;SDS011;66556;52.008;5.432;2023-05-29T12:52:24;15.0;;;3.4;;
59653;SDS011;66556;52.008;5.432;2023-05-29T12:54:00;12.8;;;2.9;;